sensor_id;sensor_type;location;lat;lon;timestamp;P1;durP1;ratioP1;P2;durP2;ratioP2
11837;SDS011;5978;51.020;6.764;2023-06-10T00:01:55;14.97;;;13.47;;
11837;SDS011;5978;51.020;6.764;2023-06-10T00:04:25;14.30;;;12.93;;
11837;SDS011;5978;51.020;6.764;2023-06-10T00:06:52;13.50;;;12.10;;
11837;SDS011;5978;51.020;6.764;2023-06-10T00:09:18;16.23;;;14.50;;
11837;SDS011;5978;51.020;6.764;2023-06-10T00:11:46;15.70;;;13.37;;
11837;SDS011;5978;51.020;6.764;2023-06-10T00:14:12;15.83;;;13.87;;
11837;SDS011;5978;51.020;6.764;2023-06-10T00:16:38;14.97;;;13.50;;
11837;SDS011;5978;51.020;6.764;2023-06-10T00:19:04;18.00;;;14.13;;
11837;SDS011;5978;51.020;6.764;2023-06-10T00:21:31;15.43;;;14.00;;
11837;SDS011;5978;51.020;6.764;2023-06-10T00:24:02;16.47;;;14.83;;
11837;SDS011;5978;51.020;6.764;2023-06-10T00:26:30;16.27;;;14.57;;
11837;SDS011;5978;51.020;6.764;2023-06-10T00:28:57;14.67;;;13.13;;
11837;SDS011;5978;51.020;6.764;2023-06-10T00:31:23;14.47;;;13.10;;
11837;SDS011;5978;51.020;6.764;2023-06-10T00:33:48;16.43;;;13.37;;
11837;SDS011;5978;51.020;6.764;2023-06-10T00:36:14;14.60;;;13.17;;
11837;SDS011;5978;51.020;6.764;2023-06-10T00:38:40;17.23;;;12.50;;
11837;SDS011;5978;51.020;6.764;2023-06-10T00:41:06;15.30;;;13.97;;
11837;SDS011;5978;51.020;6.764;2023-06-10T00:43:32;15.07;;;13.57;;
11837;SDS011;5978;51.020;6.764;2023-06-10T00:45:58;15.77;;;14.33;;
11837;SDS011;5978;51.020;6.764;2023-06-10T00:48:25;15.97;;;14.47;;
11837;SDS011;5978;51.020;6.764;2023-06-10T00:50:52;14.67;;;13.37;;
11837;SDS011;5978;51.020;6.764;2023-06-10T00:53:18;15.07;;;13.50;;
11837;SDS011;5978;51.020;6.764;2023-06-10T00:55:46;15.53;;;13.97;;
11837;SDS011;5978;51.020;6.764;2023-06-10T00:58:11;15.57;;;14.03;;
11837;SDS011;5978;51.020;6.764;2023-06-10T01:00:38;14.33;;;13.13;;
11837;SDS011;5978;51.020;6.764;2023-06-10T01:03:04;16.17;;;14.40;;
11837;SDS011;5978;51.020;6.764;2023-06-10T01:05:33;14.67;;;13.20;;
11837;SDS011;5978;51.020;6.764;2023-06-10T01:08:14;14.73;;;13.43;;
11837;SDS011;5978;51.020;6.764;2023-06-10T01:10:52;15.57;;;14.17;;
11837;SDS011;5978;51.020;6.764;2023-06-10T01:13:21;15.63;;;14.23;;
11837;SDS011;5978;51.020;6.764;2023-06-10T01:15:49;13.77;;;12.47;;
11837;SDS011;5978;51.020;6.764;2023-06-10T01:18:16;14.73;;;13.50;;
11837;SDS011;5978;51.020;6.764;2023-06-10T01:20:43;14.53;;;13.33;;
11837;SDS011;5978;51.020;6.764;2023-06-10T01:23:11;15.80;;;14.20;;
11837;SDS011;5978;51.020;6.764;2023-06-10T01:25:38;15.23;;;13.73;;
11837;SDS011;5978;51.020;6.764;2023-06-10T01:28:31;14.17;;;12.80;;
11837;SDS011;5978;51.020;6.764;2023-06-10T01:31:13;16.50;;;14.27;;
11837;SDS011;5978;51.020;6.764;2023-06-10T01:34:01;13.63;;;12.53;;
11837;SDS011;5978;51.020;6.764;2023-06-10T01:36:31;15.13;;;13.67;;
11837;SDS011;5978;51.020;6.764;2023-06-10T01:38:58;14.97;;;13.40;;
11837;SDS011;5978;51.020;6.764;2023-06-10T01:41:26;14.13;;;12.60;;
11837;SDS011;5978;51.020;6.764;2023-06-10T01:43:52;15.67;;;14.27;;
11837;SDS011;5978;51.020;6.764;2023-06-10T01:46:19;15.83;;;13.83;;
11837;SDS011;5978;51.020;6.764;2023-06-10T01:48:46;14.80;;;13.30;;
11837;SDS011;5978;51.020;6.764;2023-06-10T01:51:12;15.40;;;13.97;;
11837;SDS011;5978;51.020;6.764;2023-06-10T01:53:38;13.90;;;12.53;;
11837;SDS011;5978;51.020;6.764;2023-06-10T01:56:03;13.60;;;12.40;;
11837;SDS011;5978;51.020;6.764;2023-06-10T01:58:30;15.30;;;13.80;;
11837;SDS011;5978;51.020;6.764;2023-06-10T02:00:55;15.33;;;14.03;;
11837;SDS011;5978;51.020;6.764;2023-06-10T02:03:21;15.23;;;13.83;;
11837;SDS011;5978;51.020;6.764;2023-06-10T02:05:47;15.60;;;14.20;;
11837;SDS011;5978;51.020;6.764;2023-06-10T02:08:13;15.50;;;14.00;;
11837;SDS011;5978;51.020;6.764;2023-06-10T02:10:38;16.07;;;14.53;;
11837;SDS011;5978;51.020;6.764;2023-06-10T02:13:05;15.83;;;14.37;;
11837;SDS011;5978;51.020;6.764;2023-06-10T02:15:31;15.87;;;14.40;;
11837;SDS011;5978;51.020;6.764;2023-06-10T02:17:57;14.73;;;13.43;;
11837;SDS011;5978;51.020;6.764;2023-06-10T02:20:24;16.03;;;14.33;;
11837;SDS011;5978;51.020;6.764;2023-06-10T02:22:50;16.87;;;15.27;;
11837;SDS011;5978;51.020;6.764;2023-06-10T02:25:16;15.73;;;14.20;;
11837;SDS011;5978;51.020;6.764;2023-06-10T02:27:42;16.30;;;14.80;;
11837;SDS011;5978;51.020;6.764;2023-06-10T02:30:07;15.43;;;13.73;;
11837;SDS011;5978;51.020;6.764;2023-06-10T02:32:35;17.13;;;15.63;;
11837;SDS011;5978;51.020;6.764;2023-06-10T02:35:01;18.53;;;15.50;;
11837;SDS011;5978;51.020;6.764;2023-06-10T02:37:27;16.03;;;14.60;;
11837;SDS011;5978;51.020;6.764;2023-06-10T02:39:53;16.10;;;14.50;;
11837;SDS011;5978;51.020;6.764;2023-06-10T02:42:19;15.83;;;14.20;;
11837;SDS011;5978;51.020;6.764;2023-06-10T02:44:45;17.13;;;15.53;;
11837;SDS011;5978;51.020;6.764;2023-06-10T02:47:10;15.70;;;14.10;;
11837;SDS011;5978;51.020;6.764;2023-06-10T02:49:36;16.80;;;15.13;;
11837;SDS011;5978;51.020;6.764;2023-06-10T02:52:02;17.90;;;14.90;;
11837;SDS011;5978;51.020;6.764;2023-06-10T02:54:28;15.77;;;14.10;;
11837;SDS011;5978;51.020;6.764;2023-06-10T02:56:54;15.23;;;13.90;;
11837;SDS011;5978;51.020;6.764;2023-06-10T02:59:21;16.37;;;14.70;;
11837;SDS011;5978;51.020;6.764;2023-06-10T03:01:47;15.47;;;14.13;;
11837;SDS011;5978;51.020;6.764;2023-06-10T03:04:13;16.60;;;14.93;;
11837;SDS011;5978;51.020;6.764;2023-06-10T03:06:39;16.67;;;14.93;;
11837;SDS011;5978;51.020;6.764;2023-06-10T03:09:06;15.70;;;14.20;;
11837;SDS011;5978;51.020;6.764;2023-06-10T03:11:32;16.00;;;14.00;;
11837;SDS011;5978;51.020;6.764;2023-06-10T03:13:58;15.00;;;13.60;;
11837;SDS011;5978;51.020;6.764;2023-06-10T03:16:24;16.40;;;14.90;;
11837;SDS011;5978;51.020;6.764;2023-06-10T03:18:50;16.00;;;14.47;;
11837;SDS011;5978;51.020;6.764;2023-06-10T03:21:16;17.33;;;15.73;;
11837;SDS011;5978;51.020;6.764;2023-06-10T03:23:42;16.63;;;15.03;;
11837;SDS011;5978;51.020;6.764;2023-06-10T03:26:07;17.43;;;14.87;;
11837;SDS011;5978;51.020;6.764;2023-06-10T03:28:35;16.63;;;14.80;;
11837;SDS011;5978;51.020;6.764;2023-06-10T03:31:01;17.37;;;15.73;;
11837;SDS011;5978;51.020;6.764;2023-06-10T03:33:27;15.60;;;14.20;;
11837;SDS011;5978;51.020;6.764;2023-06-10T03:35:52;16.77;;;15.03;;
11837;SDS011;5978;51.020;6.764;2023-06-10T03:38:18;17.93;;;15.10;;
11837;SDS011;5978;51.020;6.764;2023-06-10T03:40:44;16.90;;;15.10;;
11837;SDS011;5978;51.020;6.764;2023-06-10T03:43:10;16.50;;;14.70;;
11837;SDS011;5978;51.020;6.764;2023-06-10T03:45:35;21.97;;;14.47;;
11837;SDS011;5978;51.020;6.764;2023-06-10T03:48:02;15.70;;;14.17;;
11837;SDS011;5978;51.020;6.764;2023-06-10T03:50:28;15.90;;;14.27;;
11837;SDS011;5978;51.020;6.764;2023-06-10T03:52:54;15.80;;;14.20;;
11837;SDS011;5978;51.020;6.764;2023-06-10T03:55:20;16.17;;;14.77;;
11837;SDS011;5978;51.020;6.764;2023-06-10T03:57:47;17.47;;;15.87;;
11837;SDS011;5978;51.020;6.764;2023-06-10T04:00:14;15.80;;;14.30;;
11837;SDS011;5978;51.020;6.764;2023-06-10T04:02:41;17.00;;;15.40;;
11837;SDS011;5978;51.020;6.764;2023-06-10T04:05:14;16.23;;;14.70;;
11837;SDS011;5978;51.020;6.764;2023-06-10T04:07:44;17.87;;;15.00;;
11837;SDS011;5978;51.020;6.764;2023-06-10T04:10:12;16.90;;;15.30;;
11837;SDS011;5978;51.020;6.764;2023-06-10T04:12:38;20.80;;;16.07;;
11837;SDS011;5978;51.020;6.764;2023-06-10T04:15:05;18.10;;;16.17;;
11837;SDS011;5978;51.020;6.764;2023-06-10T04:17:31;17.60;;;15.90;;
11837;SDS011;5978;51.020;6.764;2023-06-10T04:19:57;17.10;;;14.77;;
11837;SDS011;5978;51.020;6.764;2023-06-10T04:22:26;16.57;;;14.87;;
11837;SDS011;5978;51.020;6.764;2023-06-10T04:24:52;15.00;;;13.70;;
11837;SDS011;5978;51.020;6.764;2023-06-10T04:27:18;16.30;;;14.70;;
11837;SDS011;5978;51.020;6.764;2023-06-10T04:29:44;17.20;;;15.50;;
11837;SDS011;5978;51.020;6.764;2023-06-10T04:32:10;16.53;;;14.73;;
11837;SDS011;5978;51.020;6.764;2023-06-10T04:34:36;16.27;;;14.77;;
11837;SDS011;5978;51.020;6.764;2023-06-10T04:37:05;16.57;;;14.93;;
11837;SDS011;5978;51.020;6.764;2023-06-10T04:39:31;15.83;;;14.33;;
11837;SDS011;5978;51.020;6.764;2023-06-10T04:41:57;17.53;;;15.73;;
11837;SDS011;5978;51.020;6.764;2023-06-10T04:44:23;16.53;;;14.97;;
11837;SDS011;5978;51.020;6.764;2023-06-10T04:46:49;16.20;;;14.10;;
11837;SDS011;5978;51.020;6.764;2023-06-10T04:49:14;18.70;;;16.80;;
11837;SDS011;5978;51.020;6.764;2023-06-10T04:51:40;17.07;;;15.47;;
11837;SDS011;5978;51.020;6.764;2023-06-10T04:54:06;19.60;;;16.23;;
11837;SDS011;5978;51.020;6.764;2023-06-10T04:56:32;17.20;;;15.23;;
11837;SDS011;5978;51.020;6.764;2023-06-10T04:58:58;16.73;;;15.13;;
11837;SDS011;5978;51.020;6.764;2023-06-10T05:01:24;16.70;;;15.10;;
11837;SDS011;5978;51.020;6.764;2023-06-10T05:03:50;18.00;;;15.40;;
11837;SDS011;5978;51.020;6.764;2023-06-10T05:06:16;19.80;;;15.70;;
11837;SDS011;5978;51.020;6.764;2023-06-10T05:08:42;17.47;;;15.77;;
11837;SDS011;5978;51.020;6.764;2023-06-10T05:11:08;17.17;;;15.33;;
11837;SDS011;5978;51.020;6.764;2023-06-10T05:13:34;17.27;;;15.57;;
11837;SDS011;5978;51.020;6.764;2023-06-10T05:16:01;20.63;;;15.73;;
11837;SDS011;5978;51.020;6.764;2023-06-10T05:18:27;17.00;;;15.47;;
11837;SDS011;5978;51.020;6.764;2023-06-10T05:20:53;18.50;;;16.53;;
11837;SDS011;5978;51.020;6.764;2023-06-10T05:23:21;16.60;;;14.80;;
11837;SDS011;5978;51.020;6.764;2023-06-10T05:25:48;18.73;;;15.17;;
11837;SDS011;5978;51.020;6.764;2023-06-10T05:28:14;24.60;;;16.40;;
11837;SDS011;5978;51.020;6.764;2023-06-10T05:30:40;15.80;;;14.40;;
11837;SDS011;5978;51.020;6.764;2023-06-10T05:33:06;16.70;;;15.03;;
11837;SDS011;5978;51.020;6.764;2023-06-10T05:35:32;17.60;;;16.00;;
11837;SDS011;5978;51.020;6.764;2023-06-10T05:37:58;16.67;;;15.07;;
11837;SDS011;5978;51.020;6.764;2023-06-10T05:40:24;15.07;;;13.67;;
11837;SDS011;5978;51.020;6.764;2023-06-10T05:42:50;14.77;;;13.20;;
11837;SDS011;5978;51.020;6.764;2023-06-10T05:45:15;15.30;;;13.80;;
11837;SDS011;5978;51.020;6.764;2023-06-10T05:47:41;14.50;;;13.20;;
11837;SDS011;5978;51.020;6.764;2023-06-10T05:50:07;14.03;;;12.73;;
11837;SDS011;5978;51.020;6.764;2023-06-10T05:52:34;16.40;;;14.93;;
11837;SDS011;5978;51.020;6.764;2023-06-10T05:55:01;15.43;;;13.67;;
11837;SDS011;5978;51.020;6.764;2023-06-10T05:57:29;15.40;;;13.80;;
11837;SDS011;5978;51.020;6.764;2023-06-10T05:59:55;19.80;;;14.97;;
11837;SDS011;5978;51.020;6.764;2023-06-10T06:02:21;14.83;;;13.50;;
11837;SDS011;5978;51.020;6.764;2023-06-10T06:04:47;13.17;;;12.17;;
11837;SDS011;5978;51.020;6.764;2023-06-10T06:07:13;14.20;;;12.90;;
11837;SDS011;5978;51.020;6.764;2023-06-10T06:09:39;15.17;;;13.50;;
11837;SDS011;5978;51.020;6.764;2023-06-10T06:12:05;13.20;;;11.90;;
11837;SDS011;5978;51.020;6.764;2023-06-10T06:14:37;13.83;;;12.53;;
11837;SDS011;5978;51.020;6.764;2023-06-10T06:17:06;20.17;;;14.63;;
11837;SDS011;5978;51.020;6.764;2023-06-10T06:19:32;13.50;;;12.30;;
11837;SDS011;5978;51.020;6.764;2023-06-10T06:21:58;13.50;;;12.20;;
11837;SDS011;5978;51.020;6.764;2023-06-10T06:24:24;13.37;;;11.97;;
11837;SDS011;5978;51.020;6.764;2023-06-10T06:26:50;12.80;;;11.60;;
11837;SDS011;5978;51.020;6.764;2023-06-10T06:29:16;13.33;;;11.93;;
11837;SDS011;5978;51.020;6.764;2023-06-10T06:31:41;13.80;;;12.47;;
11837;SDS011;5978;51.020;6.764;2023-06-10T06:34:07;13.20;;;12.10;;
11837;SDS011;5978;51.020;6.764;2023-06-10T06:36:33;13.87;;;12.57;;
11837;SDS011;5978;51.020;6.764;2023-06-10T06:38:59;13.70;;;11.90;;
11837;SDS011;5978;51.020;6.764;2023-06-10T06:41:27;13.43;;;12.23;;
11837;SDS011;5978;51.020;6.764;2023-06-10T06:43:53;15.20;;;12.70;;
11837;SDS011;5978;51.020;6.764;2023-06-10T06:46:20;13.20;;;11.90;;
11837;SDS011;5978;51.020;6.764;2023-06-10T06:48:47;14.40;;;12.03;;
11837;SDS011;5978;51.020;6.764;2023-06-10T06:51:13;12.10;;;11.00;;
11837;SDS011;5978;51.020;6.764;2023-06-10T06:53:39;12.40;;;11.10;;
11837;SDS011;5978;51.020;6.764;2023-06-10T06:56:10;12.67;;;11.57;;
11837;SDS011;5978;51.020;6.764;2023-06-10T06:58:36;12.30;;;10.07;;
11837;SDS011;5978;51.020;6.764;2023-06-10T07:01:02;11.30;;;10.07;;
11837;SDS011;5978;51.020;6.764;2023-06-10T07:03:28;12.50;;;11.20;;
11837;SDS011;5978;51.020;6.764;2023-06-10T07:05:53;12.40;;;11.07;;
11837;SDS011;5978;51.020;6.764;2023-06-10T07:08:19;11.63;;;10.50;;
11837;SDS011;5978;51.020;6.764;2023-06-10T07:10:45;11.57;;;10.57;;
11837;SDS011;5978;51.020;6.764;2023-06-10T07:13:11;13.20;;;9.53;;
11837;SDS011;5978;51.020;6.764;2023-06-10T07:15:38;10.03;;;9.23;;
11837;SDS011;5978;51.020;6.764;2023-06-10T07:18:04;10.20;;;9.30;;
11837;SDS011;5978;51.020;6.764;2023-06-10T07:20:29;11.07;;;10.07;;
11837;SDS011;5978;51.020;6.764;2023-06-10T07:22:55;11.93;;;10.83;;
11837;SDS011;5978;51.020;6.764;2023-06-10T07:25:21;11.87;;;9.90;;
11837;SDS011;5978;51.020;6.764;2023-06-10T07:27:47;10.80;;;9.90;;
11837;SDS011;5978;51.020;6.764;2023-06-10T07:30:14;11.03;;;10.10;;
11837;SDS011;5978;51.020;6.764;2023-06-10T07:32:39;11.73;;;10.53;;
11837;SDS011;5978;51.020;6.764;2023-06-10T07:35:09;10.20;;;9.30;;
11837;SDS011;5978;51.020;6.764;2023-06-10T07:37:37;18.63;;;10.13;;
11837;SDS011;5978;51.020;6.764;2023-06-10T07:40:04;11.50;;;10.40;;
11837;SDS011;5978;51.020;6.764;2023-06-10T07:42:31;11.40;;;10.50;;
11837;SDS011;5978;51.020;6.764;2023-06-10T07:44:59;10.57;;;9.67;;
11837;SDS011;5978;51.020;6.764;2023-06-10T07:47:25;15.90;;;10.10;;
11837;SDS011;5978;51.020;6.764;2023-06-10T07:49:51;9.83;;;8.53;;
11837;SDS011;5978;51.020;6.764;2023-06-10T07:52:17;9.50;;;8.70;;
11837;SDS011;5978;51.020;6.764;2023-06-10T07:54:42;11.83;;;10.57;;
11837;SDS011;5978;51.020;6.764;2023-06-10T07:57:08;14.23;;;9.77;;
11837;SDS011;5978;51.020;6.764;2023-06-10T07:59:34;10.33;;;9.23;;
11837;SDS011;5978;51.020;6.764;2023-06-10T08:02:00;10.43;;;9.40;;
11837;SDS011;5978;51.020;6.764;2023-06-10T08:04:26;9.33;;;8.53;;
11837;SDS011;5978;51.020;6.764;2023-06-10T08:06:51;10.77;;;9.50;;
11837;SDS011;5978;51.020;6.764;2023-06-10T08:09:17;9.60;;;8.70;;
11837;SDS011;5978;51.020;6.764;2023-06-10T08:11:43;11.37;;;10.40;;
11837;SDS011;5978;51.020;6.764;2023-06-10T08:14:11;11.27;;;10.10;;
11837;SDS011;5978;51.020;6.764;2023-06-10T08:16:37;9.93;;;8.93;;
11837;SDS011;5978;51.020;6.764;2023-06-10T08:19:03;10.30;;;9.40;;
11837;SDS011;5978;51.020;6.764;2023-06-10T08:21:28;9.13;;;8.27;;
11837;SDS011;5978;51.020;6.764;2023-06-10T08:23:54;10.83;;;9.83;;
11837;SDS011;5978;51.020;6.764;2023-06-10T08:26:20;11.50;;;10.23;;
11837;SDS011;5978;51.020;6.764;2023-06-10T08:28:46;10.37;;;9.37;;
11837;SDS011;5978;51.020;6.764;2023-06-10T08:31:12;11.77;;;10.57;;
11837;SDS011;5978;51.020;6.764;2023-06-10T08:33:38;10.87;;;9.90;;
11837;SDS011;5978;51.020;6.764;2023-06-10T08:36:03;10.60;;;9.50;;
11837;SDS011;5978;51.020;6.764;2023-06-10T08:38:29;10.93;;;9.77;;
11837;SDS011;5978;51.020;6.764;2023-06-10T08:40:59;9.43;;;8.63;;
11837;SDS011;5978;51.020;6.764;2023-06-10T08:43:32;15.20;;;10.50;;
11837;SDS011;5978;51.020;6.764;2023-06-10T08:46:01;11.53;;;10.33;;
11837;SDS011;5978;51.020;6.764;2023-06-10T08:48:30;10.67;;;9.30;;
11837;SDS011;5978;51.020;6.764;2023-06-10T08:51:00;11.50;;;10.10;;
11837;SDS011;5978;51.020;6.764;2023-06-10T08:53:28;10.30;;;9.50;;
11837;SDS011;5978;51.020;6.764;2023-06-10T08:55:57;10.43;;;9.63;;
11837;SDS011;5978;51.020;6.764;2023-06-10T08:58:26;12.27;;;11.17;;
11837;SDS011;5978;51.020;6.764;2023-06-10T09:00:53;13.90;;;10.83;;
11837;SDS011;5978;51.020;6.764;2023-06-10T09:03:19;11.10;;;10.20;;
11837;SDS011;5978;51.020;6.764;2023-06-10T09:05:46;11.23;;;10.33;;
11837;SDS011;5978;51.020;6.764;2023-06-10T09:08:13;10.07;;;9.07;;
11837;SDS011;5978;51.020;6.764;2023-06-10T09:10:41;12.43;;;10.90;;
11837;SDS011;5978;51.020;6.764;2023-06-10T09:13:06;11.53;;;10.40;;
11837;SDS011;5978;51.020;6.764;2023-06-10T09:15:32;11.20;;;10.03;;
11837;SDS011;5978;51.020;6.764;2023-06-10T09:17:58;11.57;;;10.60;;
11837;SDS011;5978;51.020;6.764;2023-06-10T09:20:25;12.03;;;10.93;;
11837;SDS011;5978;51.020;6.764;2023-06-10T09:22:51;9.70;;;8.90;;
11837;SDS011;5978;51.020;6.764;2023-06-10T09:25:17;11.10;;;10.00;;
11837;SDS011;5978;51.020;6.764;2023-06-10T09:27:52;13.30;;;10.60;;
11837;SDS011;5978;51.020;6.764;2023-06-10T09:32:58;11.10;;;10.20;;
11837;SDS011;5978;51.020;6.764;2023-06-10T09:35:26;10.70;;;9.73;;
11837;SDS011;5978;51.020;6.764;2023-06-10T09:37:53;11.30;;;10.30;;
11837;SDS011;5978;51.020;6.764;2023-06-10T09:40:23;11.23;;;10.33;;
11837;SDS011;5978;51.020;6.764;2023-06-10T09:42:55;10.13;;;9.33;;
11837;SDS011;5978;51.020;6.764;2023-06-10T09:45:23;11.17;;;10.07;;
11837;SDS011;5978;51.020;6.764;2023-06-10T09:47:53;10.23;;;9.10;;
11837;SDS011;5978;51.020;6.764;2023-06-10T09:50:19;11.97;;;10.87;;
11837;SDS011;5978;51.020;6.764;2023-06-10T09:52:45;11.13;;;10.13;;
11837;SDS011;5978;51.020;6.764;2023-06-10T09:55:13;10.73;;;9.77;;
11837;SDS011;5978;51.020;6.764;2023-06-10T09:57:39;10.70;;;9.80;;
11837;SDS011;5978;51.020;6.764;2023-06-10T10:00:07;11.53;;;9.90;;
11837;SDS011;5978;51.020;6.764;2023-06-10T10:02:50;11.47;;;10.30;;
11837;SDS011;5978;51.020;6.764;2023-06-10T10:05:17;12.03;;;11.00;;
11837;SDS011;5978;51.020;6.764;2023-06-10T10:07:44;10.60;;;9.70;;
11837;SDS011;5978;51.020;6.764;2023-06-10T10:10:11;10.63;;;9.27;;
11837;SDS011;5978;51.020;6.764;2023-06-10T10:12:39;10.70;;;9.70;;
11837;SDS011;5978;51.020;6.764;2023-06-10T10:15:09;11.00;;;10.10;;
11837;SDS011;5978;51.020;6.764;2023-06-10T10:17:40;10.10;;;9.30;;
11837;SDS011;5978;51.020;6.764;2023-06-10T10:20:10;12.00;;;11.00;;
11837;SDS011;5978;51.020;6.764;2023-06-10T10:22:39;13.37;;;10.47;;
11837;SDS011;5978;51.020;6.764;2023-06-10T10:25:11;11.27;;;10.27;;
11837;SDS011;5978;51.020;6.764;2023-06-10T10:27:57;11.73;;;9.97;;
11837;SDS011;5978;51.020;6.764;2023-06-10T10:30:30;11.13;;;10.03;;
11837;SDS011;5978;51.020;6.764;2023-06-10T10:33:04;12.33;;;11.33;;
11837;SDS011;5978;51.020;6.764;2023-06-10T10:35:34;12.57;;;10.70;;
11837;SDS011;5978;51.020;6.764;2023-06-10T10:38:02;11.77;;;10.57;;
11837;SDS011;5978;51.020;6.764;2023-06-10T10:40:29;10.70;;;9.83;;
11837;SDS011;5978;51.020;6.764;2023-06-10T10:42:57;12.20;;;10.50;;
11837;SDS011;5978;51.020;6.764;2023-06-10T10:45:24;10.77;;;9.70;;
11837;SDS011;5978;51.020;6.764;2023-06-10T10:47:52;11.60;;;10.50;;
11837;SDS011;5978;51.020;6.764;2023-06-10T10:50:20;11.03;;;10.13;;
11837;SDS011;5978;51.020;6.764;2023-06-10T10:52:54;11.10;;;10.20;;
11837;SDS011;5978;51.020;6.764;2023-06-10T10:55:24;11.00;;;10.10;;
11837;SDS011;5978;51.020;6.764;2023-06-10T10:58:03;9.80;;;8.90;;
11837;SDS011;5978;51.020;6.764;2023-06-10T11:00:32;11.80;;;10.83;;
11837;SDS011;5978;51.020;6.764;2023-06-10T11:03:04;12.17;;;9.90;;
11837;SDS011;5978;51.020;6.764;2023-06-10T11:05:36;11.13;;;10.00;;
11837;SDS011;5978;51.020;6.764;2023-06-10T11:08:07;11.27;;;9.83;;
11837;SDS011;5978;51.020;6.764;2023-06-10T11:10:35;11.17;;;10.30;;
11837;SDS011;5978;51.020;6.764;2023-06-10T11:13:09;10.23;;;9.43;;
11837;SDS011;5978;51.020;6.764;2023-06-10T11:15:39;11.40;;;10.20;;
11837;SDS011;5978;51.020;6.764;2023-06-10T11:20:53;11.60;;;10.57;;
11837;SDS011;5978;51.020;6.764;2023-06-10T11:28:40;9.77;;;9.07;;
11837;SDS011;5978;51.020;6.764;2023-06-10T11:31:08;11.77;;;10.63;;
11837;SDS011;5978;51.020;6.764;2023-06-10T11:33:43;12.47;;;11.33;;
11837;SDS011;5978;51.020;6.764;2023-06-10T11:36:09;11.03;;;10.20;;
11837;SDS011;5978;51.020;6.764;2023-06-10T11:38:35;10.40;;;9.50;;
11837;SDS011;5978;51.020;6.764;2023-06-10T11:41:02;11.10;;;10.10;;
11837;SDS011;5978;51.020;6.764;2023-06-10T11:43:28;11.00;;;10.10;;
11837;SDS011;5978;51.020;6.764;2023-06-10T11:45:55;11.63;;;10.50;;
11837;SDS011;5978;51.020;6.764;2023-06-10T11:48:21;10.60;;;9.77;;
11837;SDS011;5978;51.020;6.764;2023-06-10T11:50:47;9.97;;;9.17;;
11837;SDS011;5978;51.020;6.764;2023-06-10T11:53:13;12.07;;;10.57;;
11837;SDS011;5978;51.020;6.764;2023-06-10T11:55:43;11.70;;;10.50;;
11837;SDS011;5978;51.020;6.764;2023-06-10T11:58:20;10.67;;;9.87;;
11837;SDS011;5978;51.020;6.764;2023-06-10T12:00:48;11.03;;;9.70;;
11837;SDS011;5978;51.020;6.764;2023-06-10T12:03:23;11.50;;;10.40;;
11837;SDS011;5978;51.020;6.764;2023-06-10T12:06:00;13.70;;;10.00;;
11837;SDS011;5978;51.020;6.764;2023-06-10T12:08:28;10.67;;;9.77;;
11837;SDS011;5978;51.020;6.764;2023-06-10T12:10:54;11.10;;;10.00;;
11837;SDS011;5978;51.020;6.764;2023-06-10T12:13:20;10.33;;;9.53;;
11837;SDS011;5978;51.020;6.764;2023-06-10T12:15:49;11.97;;;10.53;;
11837;SDS011;5978;51.020;6.764;2023-06-10T12:18:16;11.67;;;10.67;;
11837;SDS011;5978;51.020;6.764;2023-06-10T12:20:48;11.13;;;10.23;;
11837;SDS011;5978;51.020;6.764;2023-06-10T12:23:16;13.17;;;10.93;;
11837;SDS011;5978;51.020;6.764;2023-06-10T12:25:50;10.30;;;9.60;;
11837;SDS011;5978;51.020;6.764;2023-06-10T12:28:20;10.97;;;9.87;;
11837;SDS011;5978;51.020;6.764;2023-06-10T12:30:49;11.40;;;10.30;;
11837;SDS011;5978;51.020;6.764;2023-06-10T12:33:18;10.60;;;9.60;;
11837;SDS011;5978;51.020;6.764;2023-06-10T12:35:48;9.93;;;8.90;;
11837;SDS011;5978;51.020;6.764;2023-06-10T12:38:20;10.70;;;9.70;;
11837;SDS011;5978;51.020;6.764;2023-06-10T12:40:47;9.87;;;8.73;;
11837;SDS011;5978;51.020;6.764;2023-06-10T12:43:13;9.63;;;8.57;;
11837;SDS011;5978;51.020;6.764;2023-06-10T12:45:44;9.90;;;9.17;;
11837;SDS011;5978;51.020;6.764;2023-06-10T12:50:42;8.60;;;7.80;;
11837;SDS011;5978;51.020;6.764;2023-06-10T12:53:08;8.50;;;7.80;;
11837;SDS011;5978;51.020;6.764;2023-06-10T12:55:36;8.07;;;7.47;;
11837;SDS011;5978;51.020;6.764;2023-06-10T12:58:02;10.10;;;7.27;;
11837;SDS011;5978;51.020;6.764;2023-06-10T13:00:29;8.10;;;7.50;;
11837;SDS011;5978;51.020;6.764;2023-06-10T13:02:55;8.13;;;7.53;;
11837;SDS011;5978;51.020;6.764;2023-06-10T13:05:21;7.83;;;7.23;;
11837;SDS011;5978;51.020;6.764;2023-06-10T13:07:47;7.80;;;7.30;;
11837;SDS011;5978;51.020;6.764;2023-06-10T13:10:16;9.90;;;9.10;;
11837;SDS011;5978;51.020;6.764;2023-06-10T13:12:43;7.30;;;6.80;;
11837;SDS011;5978;51.020;6.764;2023-06-10T13:15:09;8.70;;;8.00;;
11837;SDS011;5978;51.020;6.764;2023-06-10T13:17:35;9.23;;;8.53;;
11837;SDS011;5978;51.020;6.764;2023-06-10T13:20:04;7.60;;;6.93;;
11837;SDS011;5978;51.020;6.764;2023-06-10T13:22:30;8.40;;;7.60;;
11837;SDS011;5978;51.020;6.764;2023-06-10T13:25:01;9.57;;;8.77;;
11837;SDS011;5978;51.020;6.764;2023-06-10T13:27:33;8.80;;;8.03;;
11837;SDS011;5978;51.020;6.764;2023-06-10T13:29:59;9.70;;;8.90;;
11837;SDS011;5978;51.020;6.764;2023-06-10T13:32:25;8.90;;;8.20;;
11837;SDS011;5978;51.020;6.764;2023-06-10T13:34:51;9.30;;;8.50;;
11837;SDS011;5978;51.020;6.764;2023-06-10T13:37:18;9.70;;;8.90;;
11837;SDS011;5978;51.020;6.764;2023-06-10T13:39:44;9.30;;;8.30;;
11837;SDS011;5978;51.020;6.764;2023-06-10T13:42:16;10.33;;;9.20;;
11837;SDS011;5978;51.020;6.764;2023-06-10T13:44:46;9.43;;;8.73;;
11837;SDS011;5978;51.020;6.764;2023-06-10T13:47:13;9.70;;;8.80;;
11837;SDS011;5978;51.020;6.764;2023-06-10T13:49:39;10.13;;;8.23;;
11837;SDS011;5978;51.020;6.764;2023-06-10T13:52:05;9.30;;;8.43;;
11837;SDS011;5978;51.020;6.764;2023-06-10T13:54:31;8.33;;;7.73;;
11837;SDS011;5978;51.020;6.764;2023-06-10T13:56:58;8.60;;;7.93;;
11837;SDS011;5978;51.020;6.764;2023-06-10T13:59:25;9.30;;;8.23;;
11837;SDS011;5978;51.020;6.764;2023-06-10T14:01:51;7.93;;;7.30;;
11837;SDS011;5978;51.020;6.764;2023-06-10T14:04:17;10.40;;;8.40;;
11837;SDS011;5978;51.020;6.764;2023-06-10T14:06:43;9.80;;;7.40;;
11837;SDS011;5978;51.020;6.764;2023-06-10T14:09:09;8.90;;;8.10;;
11837;SDS011;5978;51.020;6.764;2023-06-10T14:11:34;8.10;;;7.50;;
11837;SDS011;5978;51.020;6.764;2023-06-10T14:14:00;7.33;;;6.83;;
11837;SDS011;5978;51.020;6.764;2023-06-10T14:16:26;7.97;;;7.13;;
11837;SDS011;5978;51.020;6.764;2023-06-10T14:18:52;7.33;;;6.83;;
11837;SDS011;5978;51.020;6.764;2023-06-10T14:21:18;7.70;;;7.00;;
11837;SDS011;5978;51.020;6.764;2023-06-10T14:23:44;9.30;;;6.07;;
11837;SDS011;5978;51.020;6.764;2023-06-10T14:26:10;9.23;;;6.67;;
11837;SDS011;5978;51.020;6.764;2023-06-10T14:28:37;6.73;;;6.23;;
11837;SDS011;5978;51.020;6.764;2023-06-10T14:31:02;7.33;;;6.43;;
11837;SDS011;5978;51.020;6.764;2023-06-10T14:33:28;6.70;;;6.30;;
11837;SDS011;5978;51.020;6.764;2023-06-10T14:35:56;7.47;;;6.87;;
11837;SDS011;5978;51.020;6.764;2023-06-10T14:38:22;7.80;;;7.00;;
11837;SDS011;5978;51.020;6.764;2023-06-10T14:40:47;11.53;;;7.03;;
11837;SDS011;5978;51.020;6.764;2023-06-10T14:43:13;7.43;;;6.70;;
11837;SDS011;5978;51.020;6.764;2023-06-10T14:45:39;7.77;;;7.10;;
11837;SDS011;5978;51.020;6.764;2023-06-10T14:48:06;8.67;;;7.13;;
11837;SDS011;5978;51.020;6.764;2023-06-10T14:50:34;7.77;;;6.77;;
11837;SDS011;5978;51.020;6.764;2023-06-10T14:53:00;8.30;;;7.50;;
11837;SDS011;5978;51.020;6.764;2023-06-10T14:55:26;7.57;;;6.87;;